Time;durP1;ratioP1;P1;durP2;ratioP2;P2;SDS_P1;SDS_P2;PMS_P1;PMS_P2;Temp;Humidity;BMP_temperature;BMP_pressure;BME280_temperature;BME280_humidity;BME280_pressure;Samples;Min_cycle;Max_cycle;Signal;HPM_P1;HPM_P2
2021/03/21 00:01:24;;;;;;;5.95;5.05;;;;;;;3.34;58.16;101164.16;5044786;28;20025;-72
2021/03/21 00:03:51;;;;;;;6.15;5.50;;;;;;;3.61;57.01;101159.66;5051040;28;20037;-73
2021/03/21 00:06:17;;;;;;;6.97;5.53;;;;;;;3.58;57.17;101152.66;5054372;28;20472;-73
2021/03/21 00:08:43;;;;;;;8.38;5.55;;;;;;;3.34;58.37;101145.91;5019684;28;20016;-72
2021/03/21 00:11:08;;;;;;;6.57;5.47;;;;;;;3.34;57.88;101145.91;5038502;28;20043;-72
2021/03/21 00:13:34;;;;;;;6.43;5.63;;;;;;;3.29;58.07;101142.28;5048265;28;20033;-72
2021/03/21 00:16:01;;;;;;;8.05;6.18;;;;;;;3.26;58.46;101132.66;5052726;28;20029;-72
2021/03/21 00:18:32;;;;;;;7.72;6.05;;;;;;;3.27;58.30;101133.53;5033477;28;20446;-72
2021/03/21 00:20:58;;;;;;;6.53;5.35;;;;;;;3.20;58.29;101133.34;5035756;28;20017;-72
2021/03/21 00:23:23;;;;;;;7.25;6.30;;;;;;;3.23;58.34;101121.25;5036174;28;20505;-72
2021/03/21 00:25:49;;;;;;;7.53;6.15;;;;;;;3.34;57.85;101117.22;5037482;28;20017;-72
2021/03/21 00:28:19;;;;;;;8.63;6.45;;;;;;;3.50;57.98;101108.09;5053607;28;20025;-72
2021/03/21 00:30:46;;;;;;;6.80;6.10;;;;;;;3.55;57.14;101109.13;5051515;28;20098;-72
2021/03/21 00:33:14;;;;;;;8.63;6.13;;;;;;;3.64;57.06;101105.88;5028991;28;20060;-71
2021/03/21 00:35:39;;;;;;;8.43;6.38;;;;;;;3.59;57.19;101105.75;5047254;28;20708;-71
2021/03/21 00:38:09;;;;;;;8.75;6.32;;;;;;;3.37;57.71;101098.19;5052146;28;20064;-71
2021/03/21 00:40:35;;;;;;;7.25;5.88;;;;;;;3.51;58.16;101090.72;5052200;28;20397;-72
2021/03/21 00:43:00;;;;;;;8.82;6.63;;;;;;;3.53;57.83;101086.44;5053610;28;20021;-72
2021/03/21 00:45:27;;;;;;;9.13;6.82;;;;;;;3.76;56.72;101100.06;5051535;28;20033;-72
2021/03/21 00:47:53;;;;;;;11.23;6.55;;;;;;;3.66;56.82;101093.72;5037888;28;20032;-72
2021/03/21 00:50:25;;;;;;;6.40;5.70;;;;;;;3.50;57.29;101086.34;5016005;28;20029;-71
2021/03/21 00:52:51;;;;;;;7.80;6.55;;;;;;;3.53;57.55;101086.44;5041135;28;20017;-72
2021/03/21 00:55:16;;;;;;;6.95;6.22;;;;;;;3.63;57.38;101080.59;5053544;28;20039;-72
2021/03/21 00:57:42;;;;;;;8.43;6.07;;;;;;;3.52;57.57;101082.94;5050885;28;20021;-72
2021/03/21 01:00:15;;;;;;;12.50;6.25;;;;;;;3.49;58.10;101089.78;5047076;28;20025;-72
2021/03/21 01:02:40;;;;;;;8.38;6.03;;;;;;;3.51;58.20;101081.19;5043421;28;20063;-73
2021/03/21 01:05:15;;;;;;;8.10;6.30;;;;;;;3.36;59.35;101076.41;5052967;28;20454;-73
2021/03/21 01:07:40;;;;;;;8.13;6.00;;;;;;;3.46;59.22;101075.84;5034908;28;20056;-72
2021/03/21 01:10:06;;;;;;;8.23;7.20;;;;;;;3.32;59.70;101074.56;5053064;28;20067;-72
2021/03/21 01:12:31;;;;;;;9.23;7.03;;;;;;;3.64;59.12;101071.97;5035193;28;20393;-72
2021/03/21 01:14:57;;;;;;;7.82;7.03;;;;;;;3.30;59.99;101066.72;5046956;28;20472;-72
2021/03/21 01:17:22;;;;;;;9.18;7.18;;;;;;;3.29;59.76;101051.03;5051500;28;20032;-71
2021/03/21 01:19:47;;;;;;;10.13;8.35;;;;;;;3.52;59.75;101051.66;5047207;28;20029;-72
2021/03/21 01:22:13;;;;;;;10.48;7.55;;;;;;;3.48;59.97;101052.41;5024680;28;20026;-72
2021/03/21 01:24:38;;;;;;;11.55;8.02;;;;;;;3.54;59.76;101047.34;5041235;28;20440;-71
2021/03/21 01:27:04;;;;;;;9.68;7.53;;;;;;;3.61;59.25;101042.28;5043456;28;20029;-72
2021/03/21 01:29:29;;;;;;;10.18;8.07;;;;;;;3.45;59.88;101034.06;5034535;28;20484;-72
2021/03/21 01:31:54;;;;;;;10.27;7.47;;;;;;;3.73;58.99;101021.72;5046240;28;20028;-72
2021/03/21 01:34:20;;;;;;;10.65;8.07;;;;;;;3.69;59.73;101022.47;5037866;28;20060;-73
2021/03/21 01:36:45;;;;;;;9.48;7.57;;;;;;;3.62;59.40;101016.25;5047377;28;20051;-73
2021/03/21 01:39:20;;;;;;;11.38;8.15;;;;;;;3.63;60.50;101007.56;5052431;28;20511;-73
2021/03/21 01:41:54;;;;;;;11.57;8.45;;;;;;;3.69;60.09;101012.94;5050713;28;20021;-73
2021/03/21 01:44:20;;;;;;;10.93;8.30;;;;;;;3.81;59.98;101006.25;5051489;28;20017;-73
2021/03/21 01:46:58;;;;;;;10.43;7.45;;;;;;;3.64;61.37;101011.97;5045206;28;20098;-73
2021/03/21 01:49:31;;;;;;;9.15;7.55;;;;;;;3.83;59.77;100999.34;5051571;28;20025;-73
2021/03/21 01:51:57;;;;;;;11.38;8.82;;;;;;;3.69;60.71;100999.91;5043641;28;20439;-73
2021/03/21 01:54:23;;;;;;;9.95;8.30;;;;;;;3.69;60.62;100994.69;5032346;28;20108;-73
2021/03/21 01:56:49;;;;;;;11.32;9.23;;;;;;;3.77;61.30;100981.81;5031201;28;20064;-73
2021/03/21 01:59:18;;;;;;;11.35;9.20;;;;;;;3.44;61.77;100981.00;5014524;28;20049;-73
2021/03/21 02:01:44;;;;;;;11.18;8.68;;;;;;;3.54;61.46;100976.03;5030616;28;20039;-73
2021/03/21 02:04:10;;;;;;;11.18;8.57;;;;;;;3.53;61.84;100974.28;5043858;28;20492;-73
2021/03/21 02:06:35;;;;;;;10.80;8.77;;;;;;;3.54;62.09;100965.63;5050942;28;20051;-73
2021/03/21 02:09:26;;;;;;;11.00;8.77;;;;;;;3.61;61.83;100972.75;5052025;28;20029;-73
2021/03/21 02:12:05;;;;;;;12.82;9.52;;;;;;;3.56;62.33;100953.47;5042268;28;20490;-73
2021/03/21 02:14:51;;;;;;;14.70;9.80;;;;;;;3.56;62.55;100959.59;5051806;28;20083;-73
2021/03/21 02:17:18;;;;;;;13.70;10.15;;;;;;;3.70;62.77;100944.25;5040799;28;20035;-73
2021/03/21 02:20:19;;;;;;;12.07;8.90;;;;;;;3.72;63.03;100953.03;5034905;28;20028;-73
2021/03/21 02:22:52;;;;;;;16.33;10.95;;;;;;;3.91;62.64;100950.84;5038728;28;20095;-73
2021/03/21 02:25:46;;;;;;;13.20;10.13;;;;;;;3.86;62.54;100949.84;5044647;28;20025;-73
2021/03/21 02:28:32;;;;;;;14.38;9.93;;;;;;;3.95;62.24;100949.16;5050436;28;20025;-73
2021/03/21 02:31:01;;;;;;;16.67;10.32;;;;;;;4.04;62.07;100940.66;5049150;28;20021;-72
2021/03/21 02:33:29;;;;;;;14.43;10.98;;;;;;;4.08;61.16;100943.38;5043525;28;20032;-72
2021/03/21 02:36:11;;;;;;;11.68;10.40;;;;;;;4.18;61.29;100949.69;5033766;28;20514;-72
2021/03/21 02:38:57;;;;;;;13.55;10.18;;;;;;;3.83;62.42;100948.03;5036879;28;20028;-72
2021/03/21 02:41:29;;;;;;;13.15;10.05;;;;;;;3.78;62.68;100938.34;5049767;28;20025;-72
2021/03/21 02:43:59;;;;;;;13.50;10.98;;;;;;;3.79;62.80;100930.56;5039019;28;20032;-72
2021/03/21 02:46:27;;;;;;;16.30;11.45;;;;;;;3.67;63.60;100925.91;5038268;28;20535;-71
2021/03/21 02:48:56;;;;;;;15.07;10.80;;;;;;;3.59;63.97;100923.16;5044411;28;20480;-72
2021/03/21 02:51:31;;;;;;;17.45;11.43;;;;;;;3.61;63.74;100917.97;5046023;28;20115;-72
2021/03/21 02:54:14;;;;;;;14.13;11.90;;;;;;;3.68;63.15;100912.06;5051891;28;20029;-73
2021/03/21 02:56:42;;;;;;;15.88;11.27;;;;;;;3.56;63.84;100911.75;5054351;28;20025;-72
2021/03/21 02:59:13;;;;;;;14.55;10.75;;;;;;;3.57;64.17;100903.09;5035186;28;20029;-72
2021/03/21 03:01:56;;;;;;;13.50;10.82;;;;;;;3.66;63.77;100897.19;5047115;28;20017;-73
2021/03/21 03:04:27;;;;;;;14.98;11.18;;;;;;;3.43;64.89;100895.81;5037418;28;20028;-72
2021/03/21 03:06:57;;;;;;;16.75;11.95;;;;;;;3.46;64.68;100889.78;5037463;28;20108;-73
2021/03/21 03:09:41;;;;;;;13.43;10.85;;;;;;;3.54;64.71;100876.94;5039077;28;20024;-73
2021/03/21 03:12:06;;;;;;;14.35;11.27;;;;;;;3.62;64.95;100875.38;5027747;28;20020;-72
2021/03/21 03:14:36;;;;;;;15.90;12.05;;;;;;;3.73;64.68;100875.59;5037171;28;20503;-72
2021/03/21 03:17:22;;;;;;;19.35;12.18;;;;;;;3.65;65.49;100870.25;5046411;28;20039;-72
2021/03/21 03:20:19;;;;;;;18.85;12.15;;;;;;;3.69;65.65;100861.63;5035049;28;20031;-72
2021/03/21 03:23:00;;;;;;;16.55;12.43;;;;;;;3.70;65.84;100858.16;5051801;28;20023;-72
2021/03/21 03:25:33;;;;;;;13.85;11.93;;;;;;;3.82;65.08;100854.97;5046054;28;20550;-73
2021/03/21 03:28:04;;;;;;;17.73;12.05;;;;;;;3.79;66.16;100852.28;5034771;28;20044;-73
2021/03/21 03:30:45;;;;;;;19.52;13.60;;;;;;;4.02;65.24;100845.78;5046298;28;20028;-73
2021/03/21 03:33:10;;;;;;;16.50;11.67;;;;;;;4.15;64.93;100839.97;5054354;28;20396;-73
2021/03/21 03:35:36;;;;;;;17.38;12.75;;;;;;;4.01;66.28;100833.59;5048755;28;20103;-73
2021/03/21 03:38:04;;;;;;;17.85;14.00;;;;;;;3.89;67.07;100829.88;5043086;28;20040;-72
2021/03/21 03:40:29;;;;;;;18.50;14.13;;;;;;;3.79;67.07;100835.72;5043644;28;20465;-72
2021/03/21 03:43:06;;;;;;;20.85;14.55;;;;;;;3.72;67.28;100829.50;5016954;28;20112;-72
2021/03/21 03:45:58;;;;;;;19.05;13.98;;;;;;;3.86;67.18;100829.78;5046660;28;20037;-72
2021/03/21 03:48:43;;;;;;;18.98;14.73;;;;;;;3.85;67.24;100820.22;5047895;28;20033;-71
2021/03/21 03:51:21;;;;;;;18.88;13.93;;;;;;;3.71;67.73;100815.56;5022776;28;20029;-72
2021/03/21 03:54:02;;;;;;;20.42;14.55;;;;;;;3.72;68.04;100806.03;5036868;28;20514;-72
2021/03/21 03:56:50;;;;;;;18.15;14.27;;;;;;;3.84;67.63;100808.03;5036380;28;20025;-73
2021/03/21 03:59:35;;;;;;;19.35;13.70;;;;;;;3.92;66.80;100803.84;5036484;28;20033;-73
2021/03/21 04:02:09;;;;;;;19.48;13.73;;;;;;;3.97;67.23;100799.59;5051270;28;20025;-73
2021/03/21 04:04:39;;;;;;;17.75;14.18;;;;;;;3.95;66.87;100793.47;5029635;28;20084;-73
2021/03/21 04:07:13;;;;;;;19.40;14.85;;;;;;;4.18;66.07;100798.25;5047112;28;20436;-73
2021/03/21 04:09:53;;;;;;;16.88;13.48;;;;;;;4.06;67.07;100792.78;5038442;28;20020;-73
2021/03/21 04:12:34;;;;;;;19.03;13.57;;;;;;;3.85;68.14;100788.91;5044484;28;20021;-72
2021/03/21 04:15:10;;;;;;;21.10;14.10;;;;;;;3.87;68.88;100786.31;5050420;28;20602;-72
2021/03/21 04:17:45;;;;;;;19.45;14.32;;;;;;;4.03;68.15;100782.31;5022186;28;20478;-72
2021/03/21 04:20:18;;;;;;;23.05;15.85;;;;;;;4.09;67.80;100772.84;5038959;28;20025;-72
2021/03/21 04:22:48;;;;;;;19.55;15.25;;;;;;;3.97;68.64;100768.25;5036151;28;20013;-72
2021/03/21 04:25:19;;;;;;;21.65;15.18;;;;;;;3.96;69.03;100770.84;5016044;28;20095;-72
2021/03/21 04:27:46;;;;;;;;;;;;;;;4.28;68.27;100756.66;5032102;28;20712;-73
2021/03/21 04:30:13;;;;;;;21.45;15.57;;;;;;;4.32;68.65;100753.22;5029527;28;19912;-72
2021/03/21 04:32:44;;;;;;;20.55;15.23;;;;;;;4.10;68.81;100753.72;5053164;28;20517;-72
2021/03/21 04:35:14;;;;;;;21.08;15.55;;;;;;;4.24;68.46;100756.59;5051221;28;20124;-72
2021/03/21 04:37:42;;;;;;;24.05;15.75;;;;;;;4.15;68.83;100745.97;5046553;28;20083;-72
2021/03/21 04:40:09;;;;;;;21.83;16.27;;;;;;;4.12;69.57;100751.16;5045012;28;20032;-73
2021/03/21 04:42:54;;;;;;;19.92;14.93;;;;;;;4.04;70.02;100739.69;5027506;28;20070;-73
2021/03/21 04:45:24;;;;;;;26.27;17.88;;;;;;;4.15;70.31;100745.09;5035381;28;20029;-73
2021/03/21 04:48:02;;;;;;;23.98;17.85;;;;;;;4.13;70.74;100752.03;5043944;28;20013;-72
2021/03/21 04:50:29;;;;;;;25.38;17.40;;;;;;;4.26;70.52;100742.69;5038946;28;20070;-72
2021/03/21 04:53:04;;;;;;;26.40;18.08;;;;;;;4.28;70.28;100741.88;5030430;28;20061;-72
2021/03/21 04:55:43;;;;;;;27.80;18.65;;;;;;;4.08;71.18;100729.34;5040327;28;20034;-73
2021/03/21 04:58:32;;;;;;;24.77;17.90;;;;;;;4.18;70.91;100724.28;5051615;28;20033;-73
2021/03/21 05:01:12;;;;;;;25.63;18.27;;;;;;;4.39;70.64;100729.00;5051868;28;20024;-73
2021/03/21 05:03:40;;;;;;;26.30;19.00;;;;;;;4.29;71.43;100714.00;5044629;28;20017;-73
2021/03/21 05:06:13;;;;;;;23.65;17.80;;;;;;;4.31;71.91;100715.81;5038527;28;20078;-73
2021/03/21 05:08:46;;;;;;;23.15;18.08;;;;;;;4.15;72.19;100712.03;5036015;28;20373;-72
2021/03/21 05:11:12;;;;;;;26.05;17.33;;;;;;;4.41;70.86;100714.25;5035042;28;20311;-73
2021/03/21 05:13:43;;;;;;;22.13;17.42;;;;;;;4.35;71.26;100716.72;5036955;28;20040;-72
2021/03/21 05:16:23;;;;;;;23.65;17.98;;;;;;;4.39;71.27;100718.53;5034205;28;20078;-72
2021/03/21 05:18:52;;;;;;;22.47;15.70;;;;;;;4.41;71.23;100715.97;5013260;28;20025;-72
2021/03/21 05:21:37;;;;;;;24.77;16.95;;;;;;;4.62;71.28;100711.09;5035661;28;20427;-72
2021/03/21 05:24:24;;;;;;;23.38;15.85;;;;;;;4.62;71.68;100715.44;5001035;28;20485;-73
2021/03/21 05:26:55;;;;;;;21.52;14.48;;;;;;;4.43;72.57;100712.53;5022653;28;20099;-72
2021/03/21 05:29:43;;;;;;;22.40;15.55;;;;;;;4.53;73.05;100712.69;5045141;28;20033;-73
2021/03/21 05:32:10;;;;;;;21.85;14.82;;;;;;;4.60;72.54;100704.06;5037967;28;20070;-73
2021/03/21 05:34:36;;;;;;;22.20;15.52;;;;;;;4.53;73.23;100708.31;5017639;28;20021;-73
2021/03/21 05:37:22;;;;;;;20.20;15.07;;;;;;;4.48;73.79;100703.03;5036629;28;20032;-73
2021/03/21 05:39:56;;;;;;;22.73;16.88;;;;;;;4.58;73.79;100704.06;5018422;28;20029;-73
2021/03/21 05:42:42;;;;;;;20.30;16.73;;;;;;;4.74;73.08;100693.84;5034059;28;20051;-73
2021/03/21 05:45:42;;;;;;;24.10;18.13;;;;;;;4.45;73.94;100696.88;5053327;28;20086;-73
2021/03/21 05:48:13;;;;;;;23.05;16.30;;;;;;;4.73;72.62;100687.75;5050656;28;20071;-73
2021/03/21 05:50:51;;;;;;;25.38;16.85;;;;;;;4.48;73.88;100697.81;5032914;28;20049;-73
2021/03/21 05:53:36;;;;;;;25.85;18.63;;;;;;;4.52;74.31;100692.63;5016676;28;20119;-73
2021/03/21 05:56:11;;;;;;;25.13;16.77;;;;;;;4.39;74.84;100684.59;5059668;28;20047;-72
2021/03/21 05:58:45;;;;;;;22.17;16.33;;;;;;;4.59;74.45;100684.03;5068051;28;20025;-72
2021/03/21 06:01:35;;;;;;;25.92;17.42;;;;;;;4.59;74.68;100679.69;5047955;28;20025;-72
2021/03/21 06:04:10;;;;;;;22.13;16.52;;;;;;;4.65;74.68;100676.31;5061064;28;20025;-72
2021/03/21 06:07:04;;;;;;;22.55;16.88;;;;;;;4.76;74.78;100663.38;5039411;28;20052;-73
2021/03/21 06:09:50;;;;;;;22.52;15.82;;;;;;;4.60;75.61;100667.50;5053802;28;20048;-73
2021/03/21 06:12:43;;;;;;;22.58;16.75;;;;;;;4.84;75.00;100656.53;5047633;28;20033;-72
2021/03/21 06:15:49;;;;;;;19.20;15.43;;;;;;;4.63;75.23;100664.94;5051985;28;20491;-73
2021/03/21 06:18:31;;;;;;;22.50;16.05;;;;;;;4.54;76.11;100665.69;5033648;28;20029;-73
2021/03/21 06:21:17;;;;;;;20.73;16.95;;;;;;;4.72;75.53;100641.56;5049966;28;20041;-72
2021/03/21 06:23:53;;;;;;;22.48;17.38;;;;;;;4.62;76.36;100647.50;5044917;28;20087;-73
2021/03/21 06:26:37;;;;;;;20.48;14.88;;;;;;;4.57;77.16;100652.66;5031486;28;20039;-73
2021/03/21 06:29:29;;;;;;;21.05;15.95;;;;;;;4.57;77.29;100638.75;5052934;28;20036;-72
2021/03/21 06:31:54;;;;;;;20.08;14.68;;;;;;;4.87;77.14;100629.59;5045296;28;20047;-73
2021/03/21 06:34:40;;;;;;;21.40;14.17;;;;;;;4.79;77.30;100639.03;5048507;28;20163;-73
2021/03/21 06:37:26;;;;;;;19.60;14.27;;;;;;;4.77;76.76;100625.94;5048025;28;20275;-73
2021/03/21 06:40:05;;;;;;;18.08;14.23;;;;;;;4.82;76.44;100633.84;5014429;28;20112;-73
2021/03/21 06:43:02;;;;;;;17.92;14.70;;;;;;;4.73;76.43;100634.59;5025531;28;20484;-73
2021/03/21 06:46:00;;;;;;;22.15;13.98;;;;;;;4.78;76.85;100639.91;5037649;28;20071;-72
2021/03/21 06:48:44;;;;;;;18.77;13.13;;;;;;;4.87;76.76;100650.50;5054836;28;20020;-73
2021/03/21 06:51:12;;;;;;;15.95;11.60;;;;;;;4.80;76.73;100652.13;5037951;28;20047;-72
2021/03/21 06:53:49;;;;;;;15.45;11.43;;;;;;;4.95;76.31;100650.59;5055604;28;20032;-73
2021/03/21 06:56:30;;;;;;;14.43;11.38;;;;;;;4.83;75.96;100648.66;5046911;28;20103;-73
2021/03/21 06:59:21;;;;;;;13.75;10.68;;;;;;;4.84;76.41;100650.44;5055595;28;20029;-72
2021/03/21 07:02:02;;;;;;;13.23;10.38;;;;;;;5.05;75.17;100646.34;5037756;28;20032;-71
2021/03/21 07:05:08;;;;;;;12.93;10.53;;;;;;;5.28;74.55;100648.38;5054943;28;20074;-72
2021/03/21 07:08:19;;;;;;;11.50;9.15;;;;;;;5.16;75.63;100649.13;4968651;28;20729;-73
2021/03/21 07:10:59;;;;;;;12.60;9.77;;;;;;;5.27;75.41;100647.53;5026703;28;20112;-73
2021/03/21 07:14:00;;;;;;;12.05;9.48;;;;;;;5.21;75.23;100648.34;5034631;28;20132;-72
2021/03/21 07:17:03;;;;;;;12.63;9.73;;;;;;;5.14;75.50;100647.34;5042532;28;20025;-74
2021/03/21 07:19:47;;;;;;;10.05;8.43;;;;;;;5.29;75.14;100637.06;5047915;28;20029;-74
2021/03/21 07:22:47;;;;;;;12.65;10.07;;;;;;;5.33;74.42;100633.66;5054927;28;20013;-73
2021/03/21 07:25:53;;;;;;;10.90;8.73;;;;;;;5.47;74.68;100623.34;5051132;28;20029;-73
2021/03/21 07:28:49;;;;;;;10.45;8.07;;;;;;;5.59;74.39;100617.34;5026066;28;20027;-73
2021/03/21 07:31:34;;;;;;;8.38;6.75;;;;;;;5.34;74.61;100617.09;5041998;28;20492;-72
2021/03/21 07:34:08;;;;;;;10.60;8.60;;;;;;;5.30;74.55;100613.53;5052822;28;20592;-73
2021/03/21 07:36:59;;;;;;;8.18;6.85;;;;;;;5.28;74.22;100606.53;5051682;28;20247;-73
2021/03/21 07:39:35;;;;;;;8.43;6.53;;;;;;;5.32;74.58;100608.34;5044893;28;20033;-73
2021/03/21 07:42:11;;;;;;;9.02;6.80;;;;;;;5.41;75.20;100626.75;5043876;28;20021;-72
2021/03/21 07:45:10;;;;;;;12.23;8.40;;;;;;;5.80;73.27;100621.06;5049039;28;20439;-73
2021/03/21 07:47:54;;;;;;;8.73;6.32;;;;;;;5.69;73.93;100628.78;5025265;28;20040;-71
2021/03/21 07:50:28;;;;;;;7.85;6.35;;;;;;;6.09;73.11;100623.09;5038081;28;20490;-72
2021/03/21 07:53:01;;;;;;;6.47;5.47;;;;;;;6.72;69.98;100625.31;5047059;28;20076;-74
2021/03/21 07:55:36;;;;;;;5.88;5.13;;;;;;;6.80;69.44;100613.13;5036450;28;20059;-75
2021/03/21 07:58:19;;;;;;;7.07;5.45;;;;;;;6.77;69.51;100613.09;5035628;28;20030;-74
2021/03/21 08:00:45;;;;;;;5.55;4.20;;;;;;;6.91;68.69;100614.94;5034130;28;20475;-75
2021/03/21 08:03:56;;;;;;;2.97;2.50;;;;;;;7.22;65.42;100611.53;5016577;28;20025;-75
2021/03/21 08:06:35;;;;;;;3.65;2.72;;;;;;;7.09;65.79;100611.50;4963230;28;20026;-74
2021/03/21 08:09:30;;;;;;;3.30;2.67;;;;;;;7.52;63.81;100613.41;5014641;28;20110;-75
2021/03/21 08:12:31;;;;;;;2.97;2.60;;;;;;;8.00;62.14;100609.97;5044323;28;20029;-74
2021/03/21 08:15:19;;;;;;;2.20;1.80;;;;;;;8.37;60.83;100600.34;5033618;28;20025;-75
2021/03/21 08:17:54;;;;;;;1.80;1.67;;;;;;;8.45;60.40;100603.81;5018691;28;20028;-74
2021/03/21 08:20:21;;;;;;;2.65;1.98;;;;;;;8.34;61.52;100604.69;5068746;28;20025;-73
2021/03/21 08:22:46;;;;;;;5.55;2.78;;;;;;;8.44;59.63;100602.09;5046675;28;20429;-74
2021/03/21 08:25:29;;;;;;;2.42;1.80;;;;;;;8.40;60.82;100609.06;5050574;28;20071;-73
2021/03/21 08:27:55;;;;;;;4.78;2.38;;;;;;;8.52;59.99;100597.69;5033563;28;20028;-73
2021/03/21 08:30:26;;;;;;;3.03;1.88;;;;;;;8.47;60.57;100583.66;5033553;28;20480;-72
2021/03/21 08:32:57;;;;;;;2.55;1.58;;;;;;;8.15;61.59;100603.84;5016499;28;20020;-75
2021/03/21 08:35:29;;;;;;;2.50;1.30;;;;;;;8.08;62.47;100591.59;5033781;28;20500;-73
2021/03/21 08:37:56;;;;;;;3.60;1.70;;;;;;;7.44;62.89;100594.16;5022522;28;20401;-73
2021/03/21 08:40:43;;;;;;;2.58;1.70;;;;;;;8.26;62.08;100593.31;5031032;28;20017;-73
2021/03/21 08:43:13;;;;;;;3.00;1.80;;;;;;;8.32;61.97;100580.19;5033032;28;20032;-73
2021/03/21 08:45:49;;;;;;;1.67;1.55;;;;;;;8.20;62.12;100590.69;5032675;28;20133;-73
2021/03/21 08:48:25;;;;;;;3.17;1.83;;;;;;;8.20;63.11;100588.06;5036388;28;20040;-73
2021/03/21 08:50:54;;;;;;;2.38;2.08;;;;;;;8.19;63.24;100583.69;5033215;28;20025;-74
2021/03/21 08:53:54;;;;;;;2.08;1.77;;;;;;;8.34;62.03;100585.44;5060858;28;20028;-74
2021/03/21 08:56:19;;;;;;;2.83;2.53;;;;;;;8.52;60.95;100581.91;5004370;28;20343;-72
2021/03/21 08:58:47;;;;;;;4.25;2.83;;;;;;;8.57;60.89;100579.31;5053654;28;20039;-73
2021/03/21 09:01:33;;;;;;;1.90;1.80;;;;;;;9.24;59.57;100586.97;5051641;28;20116;-73
2021/03/21 09:04:17;;;;;;;3.65;2.08;;;;;;;9.50;57.89;100588.56;5034626;28;20083;-73
2021/03/21 09:06:45;;;;;;;2.85;2.63;;;;;;;9.49;56.84;100592.97;5038996;28;20024;-73
2021/03/21 09:09:25;;;;;;;5.53;2.97;;;;;;;9.52;57.32;100586.81;5052920;28;20021;-73
2021/03/21 09:11:56;;;;;;;3.78;2.63;;;;;;;9.07;58.61;100595.78;5051901;28;20116;-74
2021/03/21 09:14:28;;;;;;;4.28;3.45;;;;;;;8.54;59.54;100590.69;5029507;28;20069;-74
2021/03/21 09:17:03;;;;;;;5.65;3.35;;;;;;;8.30;60.70;100605.59;5052052;28;20507;-74
2021/03/21 09:19:35;;;;;;;5.55;3.03;;;;;;;8.24;60.00;100597.72;5051430;28;20025;-74
2021/03/21 09:22:40;;;;;;;4.90;4.35;;;;;;;8.82;59.83;100601.16;5052831;28;20024;-74
2021/03/21 09:25:14;;;;;;;4.38;3.97;;;;;;;8.42;62.16;100590.69;5052817;28;20550;-74
2021/03/21 09:27:42;;;;;;;6.75;4.85;;;;;;;8.41;61.90;100595.06;5051495;28;20032;-74
2021/03/21 09:30:11;;;;;;;6.38;4.82;;;;;;;7.92;63.43;100595.97;5051285;28;20021;-74
2021/03/21 09:32:36;;;;;;;6.20;4.47;;;;;;;7.72;63.81;100617.81;5051173;28;20379;-74
2021/03/21 09:35:08;;;;;;;8.30;4.93;;;;;;;7.73;62.64;100618.72;5051458;28;20025;-74
2021/03/21 09:37:33;;;;;;;;;;;;;;;7.88;61.81;100626.59;5052808;28;20107;-74
2021/03/21 09:40:24;;;;;;;10.70;4.63;;;;;;;8.17;60.27;100617.00;5034411;28;19955;-74
2021/03/21 09:42:51;;;;;;;8.85;4.35;;;;;;;8.41;60.36;100620.47;5043039;28;20124;-74
2021/03/21 09:45:17;;;;;;;10.68;4.97;;;;;;;8.95;57.61;100630.94;5051242;28;20033;-74
2021/03/21 09:47:52;;;;;;;8.38;5.22;;;;;;;8.90;56.34;100632.69;5034662;28;20035;-74
2021/03/21 09:51:06;;;;;;;9.77;4.10;;;;;;;9.23;55.36;100633.44;5051069;28;20557;-74
2021/03/21 09:53:59;;;;;;;9.77;4.25;;;;;;;9.52;53.76;100628.94;4999566;28;20403;-74
2021/03/21 09:56:27;;;;;;;12.32;4.40;;;;;;;9.81;52.80;100632.28;5051549;28;20017;-74
2021/03/21 09:59:23;;;;;;;11.80;4.50;;;;;;;9.78;52.31;100625.28;5052050;28;20044;-74
2021/03/21 10:01:52;;;;;;;9.10;4.10;;;;;;;9.06;54.04;100638.78;5050262;28;20108;-74
2021/03/21 10:04:55;;;;;;;13.13;4.63;;;;;;;8.79;54.18;100622.19;5034320;28;20029;-74
2021/03/21 10:07:27;;;;;;;13.52;4.47;;;;;;;8.40;56.26;100638.00;5052012;28;20028;-74
2021/03/21 10:09:54;;;;;;;14.45;4.90;;;;;;;8.52;54.92;100650.25;5034145;28;20365;-74
2021/03/21 10:12:21;;;;;;;14.32;4.53;;;;;;;8.36;54.86;100645.91;5050595;28;20496;-74
2021/03/21 10:14:59;;;;;;;19.35;4.57;;;;;;;8.44;54.65;100646.75;5050792;28;20057;-74
2021/03/21 10:17:27;;;;;;;14.48;4.47;;;;;;;9.41;52.50;100647.41;5050760;28;20108;-74
2021/03/21 10:19:54;;;;;;;14.68;4.53;;;;;;;8.85;52.33;100647.59;5051664;28;20099;-74
2021/03/21 10:22:26;;;;;;;13.82;5.30;;;;;;;8.64;54.03;100659.03;5050499;28;20021;-74
2021/03/21 10:24:54;;;;;;;12.63;4.57;;;;;;;8.14;54.82;100670.38;5050743;28;20377;-74
2021/03/21 10:27:21;;;;;;;18.20;5.20;;;;;;;8.38;54.05;100675.66;5050845;28;20028;-74
2021/03/21 10:30:06;;;;;;;15.57;5.57;;;;;;;8.21;54.39;100681.81;5051575;28;20024;-74
2021/03/21 10:32:33;;;;;;;17.63;6.03;;;;;;;8.49;54.38;100676.53;5050148;28;20024;-74
2021/03/21 10:34:59;;;;;;;16.63;4.43;;;;;;;8.47;53.86;100673.03;5034026;28;20032;-74
2021/03/21 10:37:40;;;;;;;15.05;4.82;;;;;;;7.96;54.73;100673.88;5050599;28;20029;-74
2021/03/21 10:40:24;;;;;;;12.23;4.40;;;;;;;8.30;54.97;100670.44;5051601;28;20099;-74
2021/03/21 10:42:54;;;;;;;16.98;5.53;;;;;;;8.29;54.08;100673.91;5050225;28;20025;-74
2021/03/21 10:45:32;;;;;;;17.60;5.40;;;;;;;8.05;54.78;100673.91;5050613;28;20071;-74
2021/03/21 10:47:58;;;;;;;15.38;5.25;;;;;;;7.77;56.31;100678.22;5051581;28;20029;-74
2021/03/21 10:50:27;;;;;;;13.10;4.93;;;;;;;8.11;55.27;100677.41;5049390;28;20025;-74
2021/03/21 10:53:19;;;;;;;15.35;5.13;;;;;;;7.51;57.18;100695.66;5050765;28;20069;-74
2021/03/21 10:56:19;;;;;;;14.02;4.93;;;;;;;7.76;56.93;100685.22;5050009;28;20059;-74
2021/03/21 10:58:44;;;;;;;15.05;6.72;;;;;;;7.99;55.89;100687.03;5051439;28;20551;-74
2021/03/21 11:01:16;;;;;;;21.53;6.47;;;;;;;7.95;56.89;100678.28;5050140;28;20029;-74
2021/03/21 11:03:42;;;;;;;15.05;4.80;;;;;;;7.78;56.95;100683.47;5051465;28;20539;-74
2021/03/21 11:06:14;;;;;;;18.27;5.25;;;;;;;8.11;57.09;100682.66;5033614;28;20025;-74
2021/03/21 11:08:39;;;;;;;17.75;5.30;;;;;;;7.80;57.51;100673.84;5050564;28;20104;-74
2021/03/21 11:11:15;;;;;;;21.70;6.13;;;;;;;7.81;57.93;100687.84;5033410;28;20525;-74
2021/03/21 11:13:40;;;;;;;25.73;6.43;;;;;;;8.12;56.86;100676.53;5050597;28;20021;-74
2021/03/21 11:16:14;;;;;;;20.50;6.07;;;;;;;8.25;56.35;100678.28;5053947;28;20404;-74
2021/03/21 11:18:40;;;;;;;19.63;6.00;;;;;;;8.45;55.89;100675.69;5053903;28;20103;-74
2021/03/21 11:21:11;;;;;;;16.08;6.03;;;;;;;8.14;56.16;100674.78;5054055;28;20029;-74
2021/03/21 11:23:52;;;;;;;15.50;4.88;;;;;;;8.26;56.60;100672.16;5055120;28;20025;-74
2021/03/21 11:26:24;;;;;;;20.75;5.47;;;;;;;8.37;57.31;100660.78;5054171;28;20033;-74
2021/03/21 11:28:49;;;;;;;25.92;6.43;;;;;;;8.59;56.20;100661.66;5054935;28;20028;-74
2021/03/21 11:31:27;;;;;;;18.52;6.53;;;;;;;9.02;55.73;100670.34;5053589;28;20155;-74
2021/03/21 11:33:52;;;;;;;13.63;5.70;;;;;;;9.18;55.02;100669.44;5053878;28;20109;-74
2021/03/21 11:36:25;;;;;;;14.82;4.43;;;;;;;8.74;56.67;100671.31;5054984;28;20071;-74
2021/03/21 11:38:54;;;;;;;21.02;5.47;;;;;;;8.90;55.84;100671.28;5053606;28;20021;-74
2021/03/21 11:41:36;;;;;;;17.08;6.55;;;;;;;8.93;55.40;100660.72;5053456;28;20025;-74
2021/03/21 11:44:19;;;;;;;20.52;6.25;;;;;;;9.84;54.18;100671.78;5053730;28;20048;-74
2021/03/21 11:46:45;;;;;;;16.67;5.00;;;;;;;10.20;52.76;100658.34;5036620;28;20456;-74
2021/03/21 11:49:11;;;;;;;11.50;5.22;;;;;;;10.13;52.17;100668.94;5053462;28;20111;-74
2021/03/21 11:51:39;;;;;;;19.75;5.20;;;;;;;9.80;53.57;100663.00;5036491;28;20032;-75
2021/03/21 11:54:05;;;;;;;14.05;4.97;;;;;;;9.82;52.83;100649.81;5053363;28;20047;-74
2021/03/21 11:56:38;;;;;;;12.77;5.88;;;;;;;9.93;53.38;100649.72;5053225;28;20043;-74
2021/03/21 11:59:06;;;;;;;20.27;5.57;;;;;;;9.82;53.50;100658.59;5053003;28;20028;-74
2021/03/21 12:01:43;;;;;;;16.58;6.07;;;;;;;10.14;52.81;100649.59;5053044;28;20025;-74
2021/03/21 12:04:11;;;;;;;21.50;6.60;;;;;;;10.19;52.60;100640.78;5053056;28;20021;-75